Hillcrest Heights, Maryland
Current Conditions -  °F | °C
As of 9:58 PM on Thursday 27 Nov 2014 (Local Time) from KADW Reporting Station
Scattered Clouds Scattered Clouds  
Wind Chill: 30°   Ceiling: Unl
Heat Index: 38°   Visibility: 10mi
Dew Point: 28°   Wind: 15mph
Humidity: 66%   Direction: 320°NW
Pressure: 30.15"   Gusts: NA
Location:  38.8182°N, 76.9414°W
Report Text: KADW 280258Z AUTO 32013KT 10SM SCT065 SCT080 04/M02 A3015 RMK AO2 SLP219 T00361022 52011 $
Loading
Personal Weather Stations






























Interactive Weather Map New forecast layout! Learn more

10-Day Weather Forecast

Advertisements
Track Severe Weather on mobile